Time;durP1;ratioP1;P1;durP2;ratioP2;P2;SDS_P1;SDS_P2;PMS_P1;PMS_P2;Temp;Humidity;BMP_temperature;BMP_pressure;BME280_temperature;BME280_humidity;BME280_pressure;Samples;Min_cycle;Max_cycle;Signal;HPM_P1;HPM_P2
2023/08/12 04:06:01;;;;;;;3.50;2.87;;;19.40;99.90;;;;;;5330317;22;20498;-60
2023/08/12 04:08:26;;;;;;;2.93;2.70;;;19.40;99.90;;;;;;4975731;28;20403;-60
2023/08/12 04:10:52;;;;;;;3.27;2.97;;;19.40;99.90;;;;;;4975660;28;20180;-60
2023/08/12 04:13:18;;;;;;;3.37;3.07;;;19.40;99.90;;;;;;4975743;28;20179;-60
2023/08/12 04:15:49;;;;;;;2.60;2.40;;;19.50;99.90;;;;;;4975448;28;20192;-60
2023/08/12 04:18:15;;;;;;;2.83;2.63;;;19.50;99.90;;;;;;4975677;28;20229;-60
2023/08/12 04:20:41;;;;;;;2.80;2.60;;;19.50;99.90;;;;;;4975786;28;20488;-60
2023/08/12 04:23:06;;;;;;;2.50;2.40;;;19.50;99.90;;;;;;4975529;28;20164;-60
2023/08/12 04:25:32;;;;;;;2.77;2.57;;;19.60;99.90;;;;;;4975127;28;20486;-60
2023/08/12 04:27:58;;;;;;;2.60;2.40;;;19.60;99.90;;;;;;4975557;28;20168;-60
2023/08/12 04:30:23;;;;;;;1.80;1.70;;;19.60;99.90;;;;;;4975542;28;20172;-60
2023/08/12 04:32:49;;;;;;;3.80;3.30;;;19.60;99.90;;;;;;4975553;28;20183;-60
2023/08/12 04:35:17;;;;;;;2.57;2.40;;;19.60;99.90;;;;;;4974288;28;20199;-60
2023/08/12 04:37:42;;;;;;;4.30;3.90;;;19.60;99.90;;;;;;4975500;28;20246;-60
2023/08/12 04:40:09;;;;;;;4.30;2.50;;;19.60;99.90;;;;;;4975349;28;20949;-60
2023/08/12 04:42:34;;;;;;;5.33;2.80;;;19.70;99.90;;;;;;4975283;28;20169;-60
2023/08/12 04:45:00;;;;;;;2.83;1.87;;;19.70;99.90;;;;;;4975214;28;20475;-60
2023/08/12 04:47:25;;;;;;;2.60;2.40;;;19.80;99.90;;;;;;4975386;28;20172;-60
2023/08/12 04:49:52;;;;;;;2.60;2.40;;;19.80;99.90;;;;;;4975011;28;20633;-60
2023/08/12 04:52:18;;;;;;;2.97;2.77;;;19.90;99.90;;;;;;4975213;28;20191;-60
2023/08/12 04:54:43;;;;;;;2.77;2.57;;;19.90;99.90;;;;;;4974741;28;20491;-60
2023/08/12 04:57:09;;;;;;;2.60;2.50;;;20.00;99.90;;;;;;4975169;28;20966;-60
2023/08/12 04:59:35;;;;;;;3.10;2.70;;;20.00;99.90;;;;;;4975284;28;20297;-60
2023/08/12 05:02:01;;;;;;;3.00;2.80;;;20.00;99.90;;;;;;4975143;28;20518;-60
2023/08/12 05:04:26;;;;;;;3.00;2.80;;;20.00;99.90;;;;;;4974537;28;20169;-60
2023/08/12 05:06:52;;;;;;;3.60;3.30;;;20.10;99.90;;;;;;4974629;28;20192;-60
2023/08/12 05:09:17;;;;;;;3.50;3.30;;;20.10;99.90;;;;;;4974780;28;20251;-60
2023/08/12 05:11:43;;;;;;;3.20;3.00;;;20.20;99.90;;;;;;4975184;28;20176;-60
2023/08/12 05:14:09;;;;;;;2.93;2.63;;;20.20;99.90;;;;;;4974553;28;20223;-60
2023/08/12 05:16:34;;;;;;;4.23;2.90;;;20.20;99.90;;;;;;4974885;28;20184;-60
2023/08/12 05:19:00;;;;;;;1.90;1.80;;;20.30;99.90;;;;;;4974854;28;20200;-60
2023/08/12 05:21:26;;;;;;;2.13;2.03;;;20.30;99.90;;;;;;4974784;28;20267;-60
2023/08/12 05:23:52;;;;;;;2.73;2.53;;;20.40;99.90;;;;;;4974568;28;20495;-60
2023/08/12 05:26:18;;;;;;;2.90;2.70;;;20.40;99.90;;;;;;4974794;28;20507;-60
2023/08/12 05:28:43;;;;;;;2.50;2.30;;;20.40;99.90;;;;;;4974764;28;20649;-60
2023/08/12 05:31:09;;;;;;;2.40;2.30;;;20.40;99.90;;;;;;4974835;28;20172;-60
2023/08/12 05:33:34;;;;;;;2.67;2.47;;;20.30;99.90;;;;;;4974459;28;20176;-60
2023/08/12 05:36:00;;;;;;;3.07;2.87;;;20.20;99.90;;;;;;4974671;28;20271;-60
2023/08/12 05:38:26;;;;;;;3.73;2.97;;;20.20;99.90;;;;;;4974729;28;20705;-60
2023/08/12 05:40:51;;;;;;;3.43;3.07;;;20.10;99.90;;;;;;4974747;28;20288;-60
2023/08/12 05:43:17;;;;;;;3.43;3.23;;;20.00;99.90;;;;;;4974536;28;20172;-60
2023/08/12 05:45:42;;;;;;;5.03;2.80;;;19.90;99.90;;;;;;4974344;28;20543;-60
2023/08/12 05:48:08;;;;;;;2.70;2.50;;;19.90;99.90;;;;;;4974703;28;20165;-60
2023/08/12 05:50:34;;;;;;;3.40;3.20;;;19.80;99.90;;;;;;4974522;28;20200;-60
2023/08/12 05:52:59;;;;;;;3.17;2.97;;;19.80;99.90;;;;;;4974329;28;20183;-60
2023/08/12 05:55:25;;;;;;;5.10;2.60;;;19.80;99.90;;;;;;4974299;28;20198;-60
2023/08/12 05:57:50;;;;;;;2.60;2.40;;;19.80;99.90;;;;;;4974549;28;20227;-60
2023/08/12 06:00:16;;;;;;;2.77;2.53;;;19.70;99.90;;;;;;4974678;28;20286;-61
2023/08/12 06:02:41;;;;;;;3.30;3.10;;;19.70;99.90;;;;;;4976907;28;20215;-60
2023/08/12 06:05:08;;;;;;;3.40;3.10;;;19.70;99.90;;;;;;4977745;28;20200;-60
2023/08/12 06:07:33;;;;;;;3.13;2.87;;;19.70;99.90;;;;;;4978351;28;20729;-60
2023/08/12 06:09:59;;;;;;;4.10;3.33;;;19.70;99.90;;;;;;4978186;28;20455;-60
2023/08/12 06:12:25;;;;;;;5.00;3.10;;;19.70;99.90;;;;;;4960804;28;20676;-60
2023/08/12 06:14:50;;;;;;;3.37;3.07;;;19.70;99.90;;;;;;4977887;28;20467;-60
2023/08/12 06:17:16;;;;;;;3.90;3.60;;;19.80;99.90;;;;;;4978155;28;20184;-60
2023/08/12 06:19:42;;;;;;;2.70;2.50;;;19.80;99.90;;;;;;4978120;28;20518;-60
2023/08/12 06:22:07;;;;;;;2.40;2.30;;;19.80;99.90;;;;;;4977798;28;20180;-60
2023/08/12 06:24:33;;;;;;;2.80;2.60;;;19.80;99.90;;;;;;4977857;28;20188;-60
2023/08/12 06:26:58;;;;;;;3.40;3.20;;;19.80;99.90;;;;;;4978168;28;20179;-60
2023/08/12 06:29:24;;;;;;;3.37;3.07;;;19.80;99.90;;;;;;4978012;28;20294;-60
2023/08/12 06:31:49;;;;;;;2.83;2.63;;;19.90;99.90;;;;;;4977894;28;20704;-60
2023/08/12 06:34:15;;;;;;;2.80;2.60;;;19.90;99.90;;;;;;4977197;28;20173;-61
2023/08/12 06:36:40;;;;;;;3.10;2.90;;;19.90;99.90;;;;;;4977577;28;20208;-60
2023/08/12 06:39:06;;;;;;;3.07;2.87;;;20.00;99.90;;;;;;4977516;28;20179;-60
2023/08/12 06:41:32;;;;;;;2.90;2.67;;;20.00;99.90;;;;;;4977865;28;20168;-60
2023/08/12 06:43:57;;;;;;;3.37;3.10;;;20.10;99.90;;;;;;4977218;28;20642;-60
2023/08/12 06:46:23;;;;;;;2.87;2.67;;;20.20;99.90;;;;;;4977483;28;20199;-60
2023/08/12 06:48:48;;;;;;;2.17;2.07;;;20.30;99.90;;;;;;4977472;28;20228;-60
2023/08/12 06:51:14;;;;;;;3.30;3.10;;;20.40;99.90;;;;;;4977973;28;20168;-60
2023/08/12 06:53:40;;;;;;;3.83;3.53;;;20.60;99.90;;;;;;4977246;28;20247;-60
2023/08/12 06:56:06;;;;;;;2.40;2.30;;;20.70;99.90;;;;;;4959898;28;20196;-61
2023/08/12 06:58:31;;;;;;;2.80;2.60;;;20.90;99.90;;;;;;4977303;28;20412;-61
2023/08/12 07:00:58;;;;;;;3.33;3.00;;;21.10;99.90;;;;;;4977337;28;20255;-60
2023/08/12 07:03:25;;;;;;;2.77;2.57;;;21.30;99.90;;;;;;4977032;28;20184;-61
2023/08/12 07:05:50;;;;;;;3.03;2.50;;;21.60;99.90;;;;;;4976810;28;20459;-60
2023/08/12 07:08:16;;;;;;;2.73;2.53;;;21.80;99.90;;;;;;4977069;28;20425;-60
2023/08/12 07:10:42;;;;;;;3.00;2.80;;;22.20;99.90;;;;;;4977053;28;20165;-60
2023/08/12 07:13:07;;;;;;;2.73;2.53;;;22.60;99.90;;;;;;4975791;28;20604;-60
2023/08/12 07:15:33;;;;;;;2.60;2.40;;;23.00;99.90;;;;;;4976493;28;20406;-60
2023/08/12 07:17:59;;;;;;;2.47;2.27;;;23.40;99.90;;;;;;4977037;28;20177;-61
2023/08/12 07:20:25;;;;;;;3.00;2.90;;;23.80;99.90;;;;;;4976873;28;20460;-60
2023/08/12 07:22:50;;;;;;;2.70;2.50;;;24.00;99.90;;;;;;4977095;28;20664;-61
2023/08/12 07:25:16;;;;;;;3.07;2.87;;;24.30;99.90;;;;;;4976631;28;20946;-60
2023/08/12 07:27:42;;;;;;;3.03;2.80;;;24.50;99.90;;;;;;4976892;28;20519;-60
2023/08/12 07:30:08;;;;;;;2.67;2.47;;;24.70;99.90;;;;;;4976734;28;20908;-59
2023/08/12 07:32:36;;;;;;;2.43;2.23;;;24.80;99.90;;;;;;4976572;28;20227;-61
2023/08/12 07:35:01;;;;;;;3.30;3.00;;;25.00;99.90;;;;;;4976142;28;20734;-60
2023/08/12 07:37:28;;;;;;;3.50;3.20;;;25.10;99.90;;;;;;4976659;28;20410;-60
2023/08/12 07:39:53;;;;;;;3.53;3.13;;;25.40;99.90;;;;;;4976851;28;20186;-60
2023/08/12 07:42:19;;;;;;;3.23;3.03;;;25.60;99.90;;;;;;4976330;28;20429;-60
2023/08/12 07:44:45;;;;;;;2.87;2.67;;;25.90;99.90;;;;;;4976006;28;20207;-61
2023/08/12 07:47:11;;;;;;;2.67;2.47;;;26.50;99.90;;;;;;4976489;28;20398;-60
2023/08/12 07:49:36;;;;;;;4.03;3.70;;;27.30;99.90;;;;;;4976871;28;20422;-62
2023/08/12 07:52:02;;;;;;;3.40;3.20;;;28.10;99.90;;;;;;4976264;28;20237;-61
2023/08/12 07:54:28;;;;;;;3.20;2.90;;;29.30;99.90;;;;;;4976262;28;20172;-61
2023/08/12 07:56:53;;;;;;;3.57;3.30;;;30.60;99.90;;;;;;4958790;28;20168;-60
2023/08/12 07:59:20;;;;;;;2.93;2.73;;;31.80;96.90;;;;;;4976145;28;20172;-61
2023/08/12 08:01:45;;;;;;;3.40;3.17;;;32.90;94.90;;;;;;4976244;28;20551;-61
2023/08/12 08:04:11;;;;;;;3.67;3.37;;;33.90;92.00;;;;;;4975828;28;20511;-61
2023/08/12 08:06:36;;;;;;;3.77;3.50;;;34.90;91.50;;;;;;4975985;28;20668;-61
2023/08/12 08:09:03;;;;;;;3.93;3.43;;;36.00;88.20;;;;;;4975986;28;20200;-61
2023/08/12 08:11:30;;;;;;;3.07;2.93;;;36.70;85.70;;;;;;4976003;28;20184;-61
2023/08/12 08:13:58;;;;;;;4.20;3.33;;;37.50;80.30;;;;;;4975701;28;20412;-62
2023/08/12 08:16:23;;;;;;;3.73;3.53;;;38.10;77.50;;;;;;4975770;28;20515;-62
2023/08/12 08:18:49;;;;;;;3.40;3.20;;;38.40;75.70;;;;;;4976165;28;20956;-61
2023/08/12 08:21:14;;;;;;;3.70;3.50;;;38.00;73.70;;;;;;4975873;28;20263;-61
2023/08/12 08:23:41;;;;;;;3.50;3.30;;;37.60;74.50;;;;;;4975467;28;20176;-62
2023/08/12 08:26:07;;;;;;;4.17;3.87;;;37.30;75.80;;;;;;4975030;28;20212;-61
2023/08/12 08:28:33;;;;;;;3.60;3.40;;;37.40;75.70;;;;;;4975669;28;20474;-61
2023/08/12 08:30:58;;;;;;;3.57;3.33;;;37.90;74.70;;;;;;4975606;28;20598;-62
2023/08/12 08:33:26;;;;;;;4.00;3.70;;;38.40;73.30;;;;;;4975469;28;20417;-62
2023/08/12 08:35:51;;;;;;;3.40;3.20;;;38.50;72.30;;;;;;4975511;28;20531;-61
2023/08/12 08:38:17;;;;;;;3.30;3.10;;;38.10;72.50;;;;;;4975645;28;20408;-61
2023/08/12 08:40:43;;;;;;;3.97;3.67;;;37.60;73.90;;;;;;4975615;28;20172;-61
2023/08/12 08:43:09;;;;;;;5.03;3.80;;;37.00;74.30;;;;;;4958142;28;20235;-61
2023/08/12 08:45:34;;;;;;;4.40;4.10;;;36.50;76.20;;;;;;4975015;28;20204;-61
2023/08/12 08:48:02;;;;;;;4.40;4.10;;;36.30;77.70;;;;;;4975151;28;20180;-61
2023/08/12 08:50:31;;;;;;;4.33;4.03;;;36.20;78.90;;;;;;4975389;28;20535;-61
2023/08/12 08:52:57;;;;;;;4.20;3.90;;;36.80;79.70;;;;;;4975102;28;20382;-61
2023/08/12 08:55:23;;;;;;;4.03;3.73;;;37.60;77.80;;;;;;4974890;28;20390;-61
2023/08/12 08:57:49;;;;;;;4.17;3.90;;;38.40;74.80;;;;;;4975209;28;20209;-62
2023/08/12 09:00:18;;;;;;;3.40;3.20;;;39.00;74.10;;;;;;4974879;28;20164;-62
2023/08/12 09:02:46;;;;;;;4.47;4.07;;;39.70;71.60;;;;;;4975042;28;20283;-62
2023/08/12 09:05:14;;;;;;;4.37;4.07;;;40.20;68.30;;;;;;4957373;28;20455;-62
2023/08/12 09:07:41;;;;;;;3.80;3.60;;;40.40;68.30;;;;;;4975171;28;20404;-62
2023/08/12 09:10:08;;;;;;;4.50;4.20;;;40.70;67.10;;;;;;4974790;28;20822;-62
2023/08/12 09:12:34;;;;;;;4.00;3.80;;;41.00;66.20;;;;;;4975023;28;20778;-62
2023/08/12 09:15:00;;;;;;;4.10;3.80;;;41.30;65.80;;;;;;4974671;28;20473;-62
2023/08/12 09:17:26;;;;;;;3.83;3.60;;;41.30;66.50;;;;;;4974709;28;20254;-62
2023/08/12 09:19:51;;;;;;;4.07;3.87;;;41.30;65.30;;;;;;4974553;28;20216;-62
2023/08/12 09:22:18;;;;;;;4.17;3.90;;;41.50;64.00;;;;;;4974939;28;20410;-62
2023/08/12 09:24:43;;;;;;;4.27;4.00;;;41.70;63.90;;;;;;4974414;28;20195;-62
2023/08/12 09:27:09;;;;;;;3.93;3.73;;;42.30;61.00;;;;;;4974670;28;20503;-62
2023/08/12 09:29:36;;;;;;;4.10;3.90;;;43.00;60.00;;;;;;4974874;28;20196;-62
2023/08/12 09:32:17;;;;;;;3.97;3.77;;;43.10;59.40;;;;;;4974849;28;20414;-62
2023/08/12 09:34:53;;;;;;;4.10;3.90;;;43.10;59.40;;;;;;4974389;28;20838;-62
2023/08/12 09:37:20;;;;;;;4.63;4.43;;;43.00;59.40;;;;;;4973759;28;20490;-62
2023/08/12 09:39:47;;;;;;;4.43;4.13;;;43.40;59.00;;;;;;4974402;28;20845;-62
2023/08/12 09:42:13;;;;;;;4.07;3.87;;;43.30;58.00;;;;;;4974792;28;20423;-62
2023/08/12 09:44:40;;;;;;;4.30;4.10;;;43.10;57.80;;;;;;4974085;28;20830;-61
2023/08/12 09:47:08;;;;;;;3.80;3.60;;;42.90;57.70;;;;;;4974704;28;20205;-61
2023/08/12 09:49:35;;;;;;;3.57;3.37;;;43.00;58.20;;;;;;4974266;28;20462;-62
2023/08/12 09:52:02;;;;;;;3.93;3.73;;;43.20;58.50;;;;;;4974306;28;20415;-62
2023/08/12 09:54:28;;;;;;;4.37;4.17;;;43.60;57.70;;;;;;4973846;28;20415;-62
2023/08/12 09:57:00;;;;;;;3.80;3.60;;;43.50;57.20;;;;;;4974592;28;20478;-62
2023/08/12 09:59:36;;;;;;;3.83;3.63;;;43.30;56.40;;;;;;4957089;28;20467;-62
2023/08/12 10:02:05;;;;;;;2.90;2.80;;;43.10;55.50;;;;;;4974548;28;20491;-61
2023/08/12 10:04:39;;;;;;;3.60;3.40;;;42.60;55.90;;;;;;4973803;28;20436;-61
2023/08/12 10:07:06;;;;;;;3.40;3.20;;;42.10;56.20;;;;;;4974680;28;20431;-61
2023/08/12 10:09:33;;;;;;;3.77;3.57;;;41.30;56.30;;;;;;4974481;28;20527;-61
2023/08/12 10:11:59;;;;;;;3.43;3.23;;;40.10;57.40;;;;;;4974262;28;20415;-61
2023/08/12 10:14:26;;;;;;;3.70;3.40;;;38.80;59.00;;;;;;4974052;28;20416;-60
2023/08/12 10:16:52;;;;;;;3.30;3.10;;;37.70;60.70;;;;;;4974455;28;20231;-60
2023/08/12 10:19:21;;;;;;;3.50;3.30;;;36.60;64.60;;;;;;4974219;28;20438;-61
2023/08/12 10:21:54;;;;;;;3.17;2.97;;;35.50;68.60;;;;;;4974250;28;20416;-60
2023/08/12 10:24:21;;;;;;;3.60;3.30;;;34.00;78.00;;;;;;4973910;28;20374;-61
2023/08/12 10:26:47;;;;;;;4.57;4.10;;;32.60;87.90;;;;;;4974067;28;20809;-59
2023/08/12 10:29:13;;;;;;;5.30;4.87;;;31.30;91.80;;;;;;4974079;28;20382;-59
2023/08/12 10:31:40;;;;;;;3.57;3.33;;;30.20;93.30;;;;;;4974180;28;20398;-59
2023/08/12 10:34:05;;;;;;;3.40;3.20;;;29.40;97.30;;;;;;4973777;28;20947;-59
2023/08/12 10:36:32;;;;;;;3.30;3.00;;;28.80;97.70;;;;;;4973897;28;20518;-59
2023/08/12 10:38:58;;;;;;;3.60;3.30;;;28.40;99.30;;;;;;4974041;28;20294;-59
2023/08/12 10:41:24;;;;;;;3.03;2.80;;;28.20;99.90;;;;;;4973787;28;20898;-59
2023/08/12 10:43:57;;;;;;;3.00;2.80;;;28.10;99.90;;;;;;4973638;28;20411;-59
2023/08/12 10:46:27;;;;;;;3.40;3.20;;;28.20;99.90;;;;;;4973582;28;20961;-59
2023/08/12 10:48:59;;;;;;;3.97;3.67;;;28.40;99.90;;;;;;4976414;28;20419;-60
2023/08/12 10:51:51;;;;;;;2.80;2.60;;;28.60;99.90;;;;;;4977419;28;20402;-59
2023/08/12 10:54:29;;;;;;;3.40;3.10;;;28.90;99.90;;;;;;4966769;28;20409;-60
2023/08/12 10:57:11;;;;;;;4.00;3.70;;;29.20;99.90;;;;;;4977306;28;20426;-60
2023/08/12 10:59:45;;;;;;;4.00;3.27;;;29.50;99.90;;;;;;4977142;28;20492;-61
2023/08/12 11:02:33;;;;;;;2.40;2.20;;;29.90;99.90;;;;;;4977248;28;20415;-60
2023/08/12 11:05:09;;;;;;;2.43;2.30;;;30.20;99.90;;;;;;4976704;28;20489;-61
2023/08/12 11:07:45;;;;;;;3.17;2.90;;;30.50;99.60;;;;;;4977325;28;20825;-61
2023/08/12 11:10:15;;;;;;;4.50;4.10;;;30.70;99.00;;;;;;4977213;28;20423;-60
2023/08/12 11:12:52;;;;;;;3.47;3.03;;;31.00;99.50;;;;;;4977064;28;20478;-61
2023/08/12 11:15:28;;;;;;;3.17;2.93;;;31.30;99.90;;;;;;4976714;28;20860;-61
2023/08/12 11:17:54;;;;;;;2.70;2.50;;;31.70;99.90;;;;;;4977054;28;20766;-61
2023/08/12 11:20:21;;;;;;;2.93;2.73;;;32.20;95.30;;;;;;4976703;28;20449;-60
2023/08/12 11:22:47;;;;;;;3.40;2.60;;;32.60;95.20;;;;;;4976810;28;20440;-61
2023/08/12 11:25:14;;;;;;;2.83;2.63;;;33.10;93.90;;;;;;4976361;28;20439;-60
2023/08/12 11:27:44;;;;;;;2.37;2.17;;;33.40;92.10;;;;;;4976886;28;20861;-61
2023/08/12 11:30:15;;;;;;;2.90;2.70;;;33.60;89.30;;;;;;4976784;28;20580;-61
2023/08/12 11:32:46;;;;;;;2.80;2.30;;;33.70;87.30;;;;;;4976801;28;20394;-61
2023/08/12 11:35:13;;;;;;;2.90;2.70;;;33.60;85.10;;;;;;4976229;28;20435;-61
2023/08/12 11:37:40;;;;;;;2.40;2.20;;;33.40;85.30;;;;;;4976652;28;20820;-61
2023/08/12 11:40:11;;;;;;;3.17;2.23;;;33.10;85.40;;;;;;4976383;28;20872;-60
2023/08/12 11:42:41;;;;;;;2.40;2.10;;;32.90;87.10;;;;;;4976525;28;20443;-61
2023/08/12 11:45:08;;;;;;;3.37;2.53;;;32.70;86.90;;;;;;4976021;28;20427;-60
2023/08/12 11:47:34;;;;;;;2.30;2.20;;;32.70;87.00;;;;;;4976440;28;20419;-61
2023/08/12 11:50:08;;;;;;;2.23;2.13;;;32.70;87.90;;;;;;4976467;28;20424;-61
2023/08/12 11:52:35;;;;;;;2.27;2.07;;;32.70;86.20;;;;;;4976368;28;20745;-60
2023/08/12 11:55:01;;;;;;;3.03;2.83;;;32.70;85.40;;;;;;4958590;28;20801;-60
2023/08/12 11:57:27;;;;;;;6.00;5.37;;;32.60;85.30;;;;;;4976048;28;20933;-61
2023/08/12 12:00:05;;;;;;;3.10;2.90;;;32.60;84.70;;;;;;4975757;28;20477;-61
2023/08/12 12:02:37;;;;;;;2.90;2.70;;;32.50;86.30;;;;;;4976391;28;20453;-61
2023/08/12 12:05:08;;;;;;;2.50;2.30;;;32.60;85.60;;;;;;4975854;28;20763;-61
2023/08/12 12:07:33;;;;;;;2.50;2.30;;;32.50;85.90;;;;;;4976387;28;20378;-61
2023/08/12 12:09:59;;;;;;;1.67;1.57;;;32.40;86.60;;;;;;4976474;28;20420;-61
2023/08/12 12:12:25;;;;;;;0.93;0.93;;;32.10;88.60;;;;;;4975886;28;20215;-61
2023/08/12 12:14:56;;;;;;;1.53;1.43;;;31.20;90.60;;;;;;4975721;28;20206;-60
2023/08/12 12:17:23;;;;;;;1.40;1.30;;;30.10;91.90;;;;;;4975991;28;20184;-60
2023/08/12 12:19:56;;;;;;;2.07;1.87;;;29.30;92.80;;;;;;4975653;28;20463;-60
2023/08/12 12:22:30;;;;;;;1.77;1.67;;;28.70;94.00;;;;;;4975832;28;20422;-61
2023/08/12 12:24:59;;;;;;;2.00;1.90;;;28.20;95.20;;;;;;4975585;28;20761;-61
2023/08/12 12:27:26;;;;;;;1.77;1.67;;;27.80;96.60;;;;;;4975661;28;20438;-61
2023/08/12 12:29:51;;;;;;;2.30;2.20;;;27.40;98.20;;;;;;4975709;28;20390;-60
2023/08/12 12:32:21;;;;;;;1.50;1.40;;;27.00;99.70;;;;;;4975702;28;20766;-60
2023/08/12 12:34:47;;;;;;;1.93;1.73;;;26.60;99.90;;;;;;4975045;28;20200;-60
2023/08/12 12:37:13;;;;;;;1.50;1.40;;;26.20;99.90;;;;;;4975436;28;20474;-61
2023/08/12 12:39:39;;;;;;;0.90;0.90;;;25.70;99.90;;;;;;4975341;28;20452;-60
2023/08/12 12:42:05;;;;;;;1.20;1.17;;;25.20;99.90;;;;;;4975564;28;20835;-59
2023/08/12 12:44:31;;;;;;;1.83;1.73;;;24.70;99.90;;;;;;4975024;28;20439;-59
2023/08/12 12:46:56;;;;;;;4.53;1.77;;;24.40;99.90;;;;;;4975381;28;20259;-59
2023/08/12 12:49:22;;;;;;;2.10;1.53;;;24.00;99.90;;;;;;4975403;28;20231;-60
2023/08/12 12:51:48;;;;;;;4.07;3.73;;;23.70;99.90;;;;;;4975051;28;20184;-61
2023/08/12 12:54:13;;;;;;;2.70;2.00;;;23.50;99.90;;;;;;4974365;28;20512;-60
2023/08/12 12:56:39;;;;;;;2.07;1.93;;;23.30;99.90;;;;;;4974963;28;20172;-60
2023/08/12 12:59:05;;;;;;;2.50;2.13;;;23.10;99.90;;;;;;4974655;28;20207;-60
2023/08/12 13:01:31;;;;;;;1.83;1.67;;;23.00;99.90;;;;;;4974928;28;20199;-60
2023/08/12 13:03:57;;;;;;;1.90;1.80;;;22.90;99.90;;;;;;4974400;28;20501;-59
2023/08/12 13:06:23;;;;;;;1.80;1.70;;;22.80;99.90;;;;;;4974419;28;20488;-61
2023/08/12 13:08:49;;;;;;;1.93;1.83;;;22.80;99.90;;;;;;4957503;28;20177;-60
2023/08/12 13:11:15;;;;;;;2.90;2.60;;;22.70;99.90;;;;;;4975047;28;20419;-61
2023/08/12 13:13:40;;;;;;;3.40;2.50;;;22.70;99.90;;;;;;4974371;28;20411;-61
2023/08/12 13:16:08;;;;;;;4.13;2.73;;;22.70;99.90;;;;;;4974646;28;20195;-60
2023/08/12 13:18:34;;;;;;;2.70;2.50;;;22.70;99.90;;;;;;4957097;28;20242;-60
2023/08/12 13:20:59;;;;;;;2.00;1.83;;;22.70;99.90;;;;;;4974965;28;20408;-60
2023/08/12 13:23:25;;;;;;;2.43;2.20;;;22.80;99.90;;;;;;4974343;28;20425;-61
2023/08/12 13:25:51;;;;;;;2.17;2.07;;;22.90;99.90;;;;;;4974521;28;20247;-61
2023/08/12 13:28:16;;;;;;;1.90;1.80;;;23.00;99.90;;;;;;4974629;28;20543;-61
2023/08/12 13:30:42;;;;;;;2.53;2.33;;;23.00;99.90;;;;;;4974472;28;20180;-60
2023/08/12 13:33:08;;;;;;;1.73;1.63;;;23.00;99.90;;;;;;4974505;28;20181;-61
2023/08/12 13:35:33;;;;;;;2.30;2.20;;;23.00;99.90;;;;;;4956610;28;20338;-60
2023/08/12 13:38:02;;;;;;;2.20;2.03;;;23.00;99.90;;;;;;4974219;28;20400;-60
2023/08/12 13:40:30;;;;;;;2.60;2.33;;;23.00;99.90;;;;;;4974049;28;20207;-59
2023/08/12 13:42:56;;;;;;;2.07;1.87;;;22.90;99.90;;;;;;4974133;28;20423;-60
2023/08/12 13:45:22;;;;;;;2.53;2.30;;;23.00;99.90;;;;;;4973837;28;20466;-60
2023/08/12 13:47:47;;;;;;;1.83;1.73;;;23.00;99.90;;;;;;4974285;28;20234;-60
2023/08/12 13:50:13;;;;;;;2.17;1.97;;;23.00;99.90;;;;;;4974243;28;20571;-61
2023/08/12 13:52:40;;;;;;;2.50;2.30;;;23.00;99.90;;;;;;4974342;28;20191;-59
2023/08/12 13:55:06;;;;;;;2.20;2.10;;;23.10;99.90;;;;;;4973984;28;20242;-60
2023/08/12 13:57:32;;;;;;;2.83;2.63;;;23.10;99.90;;;;;;4974357;28;20766;-59
2023/08/12 13:59:57;;;;;;;2.40;2.30;;;23.20;99.90;;;;;;4974350;28;20462;-60
2023/08/12 14:02:24;;;;;;;1.80;1.70;;;23.30;99.90;;;;;;4974201;28;20500;-60
2023/08/12 14:04:49;;;;;;;1.90;1.77;;;23.50;99.90;;;;;;4973912;28;20188;-60
2023/08/12 14:07:15;;;;;;;2.53;2.33;;;23.70;99.90;;;;;;4973818;28;20490;-60
2023/08/12 14:09:41;;;;;;;1.90;1.80;;;23.90;99.90;;;;;;4974772;28;20172;-60
2023/08/12 14:12:07;;;;;;;2.43;2.27;;;24.20;99.90;;;;;;4974251;28;20181;-60
2023/08/12 14:14:33;;;;;;;5.27;1.93;;;24.50;99.90;;;;;;4973828;28;20465;-60
2023/08/12 14:16:58;;;;;;;2.37;2.17;;;24.70;99.90;;;;;;4974120;28;20180;-61
2023/08/12 14:19:24;;;;;;;2.13;2.03;;;25.00;99.90;;;;;;4974006;28;20204;-60
2023/08/12 14:21:49;;;;;;;2.00;1.90;;;25.30;99.90;;;;;;4974117;28;20170;-60
2023/08/12 14:24:15;;;;;;;2.30;2.10;;;25.60;99.90;;;;;;4976879;28;20165;-61
2023/08/12 14:26:40;;;;;;;2.47;2.27;;;25.70;99.90;;;;;;4977780;28;20219;-61
2023/08/12 14:29:06;;;;;;;2.70;2.50;;;25.90;99.90;;;;;;4977791;28;20173;-60
2023/08/12 14:31:33;;;;;;;2.07;1.97;;;25.90;99.90;;;;;;4977632;28;20578;-60
2023/08/12 14:33:58;;;;;;;2.37;2.10;;;26.00;99.90;;;;;;4977310;28;20180;-61
2023/08/12 14:36:24;;;;;;;1.90;1.80;;;26.00;99.90;;;;;;4960408;28;20794;-60
2023/08/12 14:38:52;;;;;;;2.07;1.87;;;26.10;99.90;;;;;;4977611;28;20294;-60
2023/08/12 14:41:18;;;;;;;2.00;1.90;;;26.10;99.90;;;;;;4977130;28;20176;-61
2023/08/12 14:43:43;;;;;;;1.97;1.87;;;26.20;99.90;;;;;;4977099;28;20416;-60
2023/08/12 14:46:09;;;;;;;2.97;2.77;;;26.20;99.90;;;;;;4977449;28;20185;-59
2023/08/12 14:48:34;;;;;;;2.60;2.43;;;26.30;99.90;;;;;;4977571;28;20224;-61
2023/08/12 14:51:00;;;;;;;2.30;2.13;;;26.40;99.90;;;;;;4977257;28;20168;-61
2023/08/12 14:53:26;;;;;;;2.93;2.70;;;26.30;99.90;;;;;;4976914;28;20588;-61
2023/08/12 14:55:51;;;;;;;2.73;2.53;;;26.30;99.90;;;;;;4976901;28;20259;-61
2023/08/12 14:58:17;;;;;;;2.40;2.20;;;26.30;99.90;;;;;;4977129;28;20208;-60
2023/08/12 15:00:42;;;;;;;2.73;2.53;;;26.30;99.90;;;;;;4977050;28;20292;-61
2023/08/12 15:03:10;;;;;;;2.60;2.10;;;26.30;99.90;;;;;;4977053;28;20164;-61
2023/08/12 15:05:35;;;;;;;2.23;1.93;;;26.40;99.90;;;;;;4976524;28;20215;-61
2023/08/12 15:08:02;;;;;;;2.77;2.57;;;26.40;99.90;;;;;;4976987;28;20462;-61
2023/08/12 15:10:29;;;;;;;2.40;2.20;;;26.40;99.90;;;;;;4976902;28;20835;-60
2023/08/12 15:12:54;;;;;;;2.17;2.07;;;26.40;99.90;;;;;;4959466;28;20391;-61
2023/08/12 15:15:20;;;;;;;2.30;2.10;;;26.40;99.90;;;;;;4976332;28;20431;-61
2023/08/12 15:17:46;;;;;;;2.13;2.03;;;26.40;99.90;;;;;;4977512;28;20247;-60
2023/08/12 15:20:11;;;;;;;2.33;2.13;;;26.40;99.90;;;;;;4976590;28;20207;-60
2023/08/12 15:22:37;;;;;;;2.37;2.17;;;26.50;99.90;;;;;;4976766;28;20172;-61
2023/08/12 15:25:03;;;;;;;1.90;1.80;;;26.50;99.90;;;;;;4976457;28;20785;-61
2023/08/12 15:27:28;;;;;;;2.70;2.23;;;26.60;99.90;;;;;;4976628;28;20515;-60
2023/08/12 15:29:54;;;;;;;2.03;1.93;;;26.60;99.90;;;;;;4976591;28;20208;-60
2023/08/12 15:32:20;;;;;;;2.10;2.00;;;26.60;99.90;;;;;;4976177;28;20642;-60
2023/08/12 15:34:46;;;;;;;1.77;1.67;;;26.60;99.90;;;;;;4975069;28;20443;-60
2023/08/12 15:37:11;;;;;;;1.97;1.77;;;26.40;99.90;;;;;;4959018;28;20503;-60
2023/08/12 15:39:37;;;;;;;2.40;2.20;;;26.40;99.90;;;;;;4976067;28;20204;-60
2023/08/12 15:42:03;;;;;;;2.07;1.70;;;26.30;99.90;;;;;;4976399;28;20655;-60
2023/08/12 15:44:28;;;;;;;1.67;1.57;;;26.10;99.90;;;;;;4975902;28;20246;-60
2023/08/12 15:46:54;;;;;;;2.53;2.40;;;26.00;99.90;;;;;;4976421;28;20169;-61
2023/08/12 15:49:20;;;;;;;1.37;1.27;;;25.90;99.90;;;;;;4976399;28;20184;-60
2023/08/12 15:51:45;;;;;;;1.67;1.57;;;25.80;99.90;;;;;;4976365;28;20263;-60
2023/08/12 15:54:11;;;;;;;1.80;1.70;;;25.70;99.90;;;;;;4975907;28;20207;-60
2023/08/12 15:56:36;;;;;;;1.57;1.40;;;25.70;99.90;;;;;;4976381;28;20176;-60
2023/08/12 15:59:06;;;;;;;1.47;1.40;;;25.70;99.90;;;;;;4976093;28;20606;-61
2023/08/12 16:01:32;;;;;;;1.77;1.50;;;25.60;99.90;;;;;;4976356;28;20258;-60
2023/08/12 16:03:59;;;;;;;1.60;1.50;;;25.60;99.90;;;;;;4976053;28;20772;-60
2023/08/12 16:06:25;;;;;;;1.63;1.53;;;25.60;99.90;;;;;;4975921;28;20454;-60
2023/08/12 16:08:51;;;;;;;1.37;1.27;;;25.50;99.90;;;;;;4976166;28;20411;-60
2023/08/12 16:11:17;;;;;;;1.13;1.13;;;25.50;99.90;;;;;;4976171;28;20515;-59
2023/08/12 16:13:43;;;;;;;1.93;1.83;;;25.50;99.90;;;;;;4975683;28;20988;-60
2023/08/12 16:16:09;;;;;;;1.20;1.20;;;25.50;99.90;;;;;;4975901;28;20436;-60
2023/08/12 16:18:35;;;;;;;1.60;1.20;;;25.50;99.90;;;;;;4958381;28;20263;-60
2023/08/12 16:21:01;;;;;;;1.40;1.30;;;25.50;99.90;;;;;;4958552;28;20811;-61
2023/08/12 16:23:30;;;;;;;1.70;1.60;;;25.40;99.90;;;;;;4975298;28;20590;-62
2023/08/12 16:25:56;;;;;;;1.40;1.30;;;25.30;99.90;;;;;;4975504;28;20195;-61
2023/08/12 16:28:21;;;;;;;1.70;1.60;;;25.20;99.90;;;;;;4975883;28;20391;-61
2023/08/12 16:30:47;;;;;;;2.90;2.60;;;25.10;99.90;;;;;;4975575;28;20168;-61
2023/08/12 16:33:12;;;;;;;1.30;1.20;;;25.00;99.90;;;;;;4975719;28;20173;-60
2023/08/12 16:35:38;;;;;;;2.07;1.70;;;24.80;99.90;;;;;;4975263;28;20204;-60
2023/08/12 16:38:03;;;;;;;2.00;1.90;;;24.70;99.90;;;;;;4975635;28;20262;-60
2023/08/12 16:40:29;;;;;;;2.00;1.90;;;24.50;99.90;;;;;;4975411;28;20200;-60
2023/08/12 16:42:54;;;;;;;2.47;2.00;;;24.40;99.90;;;;;;4975316;28;20168;-60
2023/08/12 16:45:20;;;;;;;3.00;2.37;;;24.10;99.90;;;;;;4974646;28;20192;-61
2023/08/12 16:47:45;;;;;;;2.30;2.10;;;23.80;99.90;;;;;;4975334;28;20180;-62
2023/08/12 16:50:11;;;;;;;2.30;2.20;;;23.40;99.90;;;;;;4975628;28;20201;-62